createdAt,value
2016-09-11T00:00:10.177Z,0
2016-09-11T00:01:09.021Z,0
2016-09-11T00:02:08.717Z,0
2016-09-11T00:03:08.968Z,0
2016-09-11T00:04:08.999Z,0
2016-09-11T00:05:08.674Z,0
2016-09-11T00:06:08.599Z,0
2016-09-11T00:07:08.761Z,0
2016-09-11T00:08:08.587Z,0
2016-09-11T00:09:08.571Z,0
2016-09-11T00:10:09.291Z,0
2016-09-11T00:11:08.561Z,0
2016-09-11T00:12:08.793Z,0
2016-09-11T00:13:08.487Z,0
2016-09-11T00:14:08.782Z,0
2016-09-11T00:15:09.647Z,0
2016-09-11T00:16:08.811Z,0
2016-09-11T00:17:08.391Z,0
2016-09-11T00:18:08.373Z,0
2016-09-11T00:19:08.432Z,0
2016-09-11T00:20:08.444Z,0
2016-09-11T00:21:08.438Z,0
2016-09-11T00:22:08.318Z,0
2016-09-11T00:23:08.346Z,0
2016-09-11T00:24:08.306Z,0
2016-09-11T00:25:08.623Z,0
2016-09-11T00:26:08.277Z,0
2016-09-11T00:27:08.485Z,0
2016-09-11T00:28:08.311Z,0
2016-09-11T00:29:08.163Z,0
2016-09-11T00:30:09.262Z,0
2016-09-11T00:31:08.389Z,0
2016-09-11T00:32:08.200Z,0
2016-09-11T00:33:08.222Z,0
2016-09-11T00:34:08.202Z,0
2016-09-11T00:35:08.388Z,0
2016-09-11T00:36:08.045Z,0
2016-09-11T00:37:08.019Z,0
2016-09-11T00:38:08.290Z,0
2016-09-11T00:39:07.963Z,0
2016-09-11T00:40:08.858Z,0
2016-09-11T00:41:07.954Z,0
2016-09-11T00:42:07.996Z,0
2016-09-11T00:43:07.913Z,0
2016-09-11T00:44:07.876Z,0
2016-09-11T00:45:08.251Z,0
2016-09-11T00:46:07.906Z,0
2016-09-11T00:47:08.318Z,0
2016-09-11T00:48:07.835Z,0
2016-09-11T00:49:08.012Z,0
2016-09-11T00:50:09.495Z,0
2016-09-11T00:51:07.775Z,0
2016-09-11T00:52:07.719Z,0
2016-09-11T00:53:07.688Z,0
2016-09-11T00:54:08.013Z,0
2016-09-11T00:55:09.053Z,0
2016-09-11T00:56:07.653Z,0
2016-09-11T00:57:07.607Z,0
2016-09-11T00:58:07.893Z,0
2016-09-11T00:59:07.664Z,0
2016-09-11T01:00:07.899Z,0
2016-09-11T01:01:07.644Z,0
2016-09-11T01:02:07.533Z,0
2016-09-11T01:03:07.514Z,0
2016-09-11T01:04:07.783Z,0
2016-09-11T01:05:07.457Z,0
2016-09-11T01:06:07.447Z,0
2016-09-11T01:07:07.460Z,0
2016-09-11T01:08:07.430Z,0
2016-09-11T01:09:07.376Z,0
2016-09-11T01:10:08.175Z,0
2016-09-11T01:11:07.696Z,0
2016-09-11T01:12:07.350Z,0
2016-09-11T01:13:07.332Z,0
2016-09-11T01:14:07.290Z,0
2016-09-11T01:15:07.335Z,0
2016-09-11T01:16:07.297Z,0
2016-09-11T01:17:07.267Z,0
2016-09-11T01:18:07.530Z,0
2016-09-11T01:19:07.184Z,0
2016-09-11T01:20:07.853Z,0
2016-09-11T01:21:07.395Z,0
2016-09-11T01:22:07.148Z,0
2016-09-11T01:23:07.142Z,0
2016-09-11T01:24:09.233Z,0
2016-09-11T01:25:07.086Z,0
2016-09-11T01:26:07.378Z,0
2016-09-11T01:27:07.034Z,0
2016-09-11T01:28:07.029Z,0
2016-09-11T01:29:07.002Z,0
2016-09-11T01:30:07.094Z,0
2016-09-11T01:31:07.074Z,0
2016-09-11T01:32:07.307Z,0
2016-09-11T01:33:06.934Z,0
2016-09-11T01:34:07.203Z,0
2016-09-11T01:35:07.053Z,0
2016-09-11T01:36:06.906Z,0
2016-09-11T01:37:07.418Z,0
2016-09-11T01:38:06.812Z,0
2016-09-11T01:39:07.327Z,0
2016-09-11T01:40:07.282Z,0
2016-09-11T01:41:06.929Z,0
2016-09-11T01:42:06.759Z,0
2016-09-11T01:43:07.226Z,0
2016-09-11T01:44:06.721Z,0
2016-09-11T01:45:07.093Z,0
2016-09-11T01:46:07.027Z,0
2016-09-11T01:47:06.998Z,0
2016-09-11T01:48:06.829Z,0
2016-09-11T01:49:06.900Z,0
2016-09-11T01:50:07.027Z,0
2016-09-11T01:51:07.181Z,0
2016-09-11T01:52:06.680Z,0
2016-09-11T01:53:06.585Z,0
2016-09-11T01:54:07.041Z,0
2016-09-11T01:55:06.947Z,0
2016-09-11T01:56:06.716Z,0
2016-09-11T01:57:06.854Z,0
2016-09-11T01:58:06.694Z,0
2016-09-11T01:59:06.519Z,0
2016-09-11T02:00:07.104Z,0
2016-09-11T02:01:06.369Z,0
2016-09-11T02:02:06.366Z,0
2016-09-11T02:03:07.448Z,0
2016-09-11T02:04:06.417Z,0
2016-09-11T02:05:07.001Z,0
2016-09-11T02:06:06.432Z,0
2016-09-11T02:07:06.284Z,0
2016-09-11T02:08:06.208Z,0
2016-09-11T02:09:06.513Z,0
2016-09-11T02:10:07.672Z,0
2016-09-11T02:11:06.460Z,0
2016-09-11T02:12:06.122Z,0
2016-09-11T02:13:06.713Z,0
2016-09-11T02:14:06.126Z,0
2016-09-11T02:15:06.284Z,0
2016-09-11T02:16:06.135Z,0
2016-09-11T02:17:06.049Z,0
2016-09-11T02:18:06.009Z,0
2016-09-11T02:19:07.184Z,0
2016-09-11T02:20:06.721Z,0
2016-09-11T02:21:06.017Z,0
2016-09-11T02:22:06.325Z,0
2016-09-11T02:23:05.924Z,0
2016-09-11T02:24:06.201Z,0
2016-09-11T02:25:05.895Z,0
2016-09-11T02:26:05.988Z,0
2016-09-11T02:27:05.999Z,0
2016-09-11T02:28:05.846Z,0
2016-09-11T02:29:05.956Z,0
2016-09-11T02:30:06.145Z,0
2016-09-11T02:31:06.092Z,0
2016-09-11T02:32:05.725Z,0
2016-09-11T02:33:06.079Z,0
2016-09-11T02:34:06.303Z,0
2016-09-11T02:35:06.038Z,0
2016-09-11T02:36:05.766Z,0
2016-09-11T02:37:05.652Z,0
2016-09-11T02:38:05.587Z,0
2016-09-11T02:39:05.615Z,0
2016-09-11T02:40:05.684Z,0
2016-09-11T02:41:05.595Z,0
2016-09-11T02:42:05.518Z,0
2016-09-11T02:43:05.529Z,0
2016-09-11T02:44:05.503Z,0
2016-09-11T02:45:05.793Z,0
2016-09-11T02:46:05.810Z,0
2016-09-11T02:47:05.441Z,0
2016-09-11T02:48:05.706Z,0
2016-09-11T02:49:05.497Z,0
2016-09-11T02:50:05.476Z,0
2016-09-11T02:51:05.356Z,0
2016-09-11T02:52:05.325Z,0
2016-09-11T02:53:05.683Z,0
2016-09-11T02:54:05.669Z,0
2016-09-11T02:55:05.342Z,0
2016-09-11T02:56:05.619Z,0
2016-09-11T02:57:05.221Z,0
2016-09-11T02:58:05.201Z,0
2016-09-11T02:59:05.179Z,0
2016-09-11T03:00:05.314Z,0
2016-09-11T03:01:05.593Z,0
2016-09-11T03:02:05.175Z,0
2016-09-11T03:03:05.092Z,0
2016-09-11T03:04:05.091Z,0
2016-09-11T03:05:05.096Z,0
2016-09-11T03:06:05.842Z,0
2016-09-11T03:07:05.059Z,0
2016-09-11T03:08:05.086Z,0
2016-09-11T03:09:05.020Z,0
2016-09-11T03:10:05.267Z,0
2016-09-11T03:11:05.018Z,0
2016-09-11T03:12:04.905Z,0
2016-09-11T03:13:04.897Z,0
2016-09-11T03:14:04.899Z,0
2016-09-11T03:15:05.009Z,0
2016-09-11T03:16:05.055Z,0
2016-09-11T03:17:04.811Z,0
2016-09-11T03:18:04.820Z,0
2016-09-11T03:19:04.763Z,0
2016-09-11T03:20:05.163Z,0
2016-09-11T03:21:05.062Z,0
2016-09-11T03:22:04.869Z,0
2016-09-11T03:23:04.754Z,0
2016-09-11T03:24:05.018Z,0
2016-09-11T03:25:04.782Z,0
2016-09-11T03:26:04.627Z,0
2016-09-11T03:27:04.834Z,0
2016-09-11T03:28:05.118Z,0
2016-09-11T03:29:04.749Z,0
2016-09-11T03:30:05.663Z,0
2016-09-11T03:31:04.518Z,0
2016-09-11T03:32:04.668Z,0
2016-09-11T03:33:04.860Z,0
2016-09-11T03:34:04.476Z,0
2016-09-11T03:35:04.933Z,0
2016-09-11T03:36:04.714Z,0
2016-09-11T03:37:05.211Z,0
2016-09-11T03:38:04.468Z,0
2016-09-11T03:39:04.365Z,0
2016-09-11T03:40:05.005Z,0
2016-09-11T03:41:04.331Z,0
2016-09-11T03:42:04.389Z,0
2016-09-11T03:43:04.298Z,0
2016-09-11T03:44:04.392Z,0
2016-09-11T03:45:04.635Z,0
2016-09-11T03:46:04.336Z,0
2016-09-11T03:47:04.231Z,0
2016-09-11T03:48:04.182Z,0
2016-09-11T03:49:04.393Z,0
2016-09-11T03:50:05.111Z,0
2016-09-11T03:51:04.285Z,0
2016-09-11T03:52:04.125Z,0
2016-09-11T03:53:04.073Z,0
2016-09-11T03:54:04.121Z,0
2016-09-11T03:55:04.765Z,0
2016-09-11T03:56:04.017Z,0
2016-09-11T03:57:03.995Z,0
2016-09-11T03:58:03.998Z,0
2016-09-11T03:59:03.994Z,0
2016-09-11T04:00:04.177Z,0
2016-09-11T04:01:03.918Z,0
2016-09-11T04:02:04.094Z,0
2016-09-11T04:03:04.035Z,0
2016-09-11T04:04:03.893Z,0
2016-09-11T04:05:03.832Z,0
2016-09-11T04:06:03.833Z,0
2016-09-11T04:07:03.802Z,0
2016-09-11T04:08:04.167Z,0
2016-09-11T04:09:03.778Z,0
2016-09-11T04:10:04.504Z,0
2016-09-11T04:11:03.787Z,0
2016-09-11T04:12:04.008Z,0
2016-09-11T04:13:03.979Z,0
2016-09-11T04:14:03.721Z,0
2016-09-11T04:15:03.905Z,0
2016-09-11T04:16:03.628Z,0
2016-09-11T04:17:03.602Z,0
2016-09-11T04:18:03.612Z,0
2016-09-11T04:19:03.855Z,0
2016-09-11T04:20:05.013Z,0
2016-09-11T04:21:03.512Z,0
2016-09-11T04:22:03.800Z,0
2016-09-11T04:23:03.489Z,0
2016-09-11T04:24:03.581Z,4
2016-09-11T04:25:14.583Z,0
2016-09-11T04:26:03.418Z,0
2016-09-11T04:27:03.766Z,4
2016-09-11T04:28:03.368Z,4
2016-09-11T04:29:03.360Z,4
2016-09-11T04:30:03.449Z,8
2016-09-11T04:31:03.309Z,4
2016-09-11T04:32:03.289Z,8
2016-09-11T04:33:03.273Z,8
2016-09-11T04:34:03.249Z,8
2016-09-11T04:35:03.228Z,12
2016-09-11T04:36:03.505Z,12
2016-09-11T04:37:03.191Z,16
2016-09-11T04:38:03.170Z,20
2016-09-11T04:39:03.154Z,24
2016-09-11T04:40:03.126Z,28
2016-09-11T04:41:03.108Z,32
2016-09-11T04:42:03.088Z,36
2016-09-11T04:43:03.070Z,44
2016-09-11T04:44:03.069Z,52
2016-09-11T04:45:03.029Z,60
2016-09-11T04:46:03.011Z,72
2016-09-11T04:47:02.999Z,80
2016-09-11T04:48:02.970Z,92
2016-09-11T04:49:02.961Z,104
2016-09-11T04:50:02.938Z,116
2016-09-11T04:51:02.910Z,136
2016-09-11T04:52:02.901Z,156
2016-09-11T04:53:02.870Z,176
2016-09-11T04:54:02.850Z,196
2016-09-11T04:55:02.831Z,224
2016-09-11T04:56:02.811Z,248
2016-09-11T04:57:02.791Z,272
2016-09-11T04:58:02.771Z,304
2016-09-11T04:59:02.801Z,336
2016-09-11T05:00:02.736Z,372
2016-09-11T05:01:02.711Z,408
2016-09-11T05:02:02.702Z,448
2016-09-11T05:03:02.970Z,496
2016-09-11T05:04:02.651Z,548
2016-09-11T05:05:02.633Z,612
2016-09-11T05:06:02.610Z,684
2016-09-11T05:07:02.592Z,764
2016-09-11T05:08:02.583Z,848
2016-09-11T05:09:02.556Z,928
2016-09-11T05:10:02.532Z,1008
2016-09-11T05:11:02.511Z,1084
2016-09-11T05:12:02.492Z,1160
2016-09-11T05:13:02.471Z,1232
2016-09-11T05:14:02.452Z,1304
2016-09-11T05:15:02.431Z,1376
2016-09-11T05:16:02.474Z,1452
2016-09-11T05:17:02.395Z,1528
2016-09-11T05:18:02.376Z,1600
2016-09-11T05:19:02.361Z,1668
2016-09-11T05:20:02.334Z,1720
2016-09-11T05:21:02.313Z,1772
2016-09-11T05:22:02.294Z,1812
2016-09-11T05:23:02.274Z,1852
2016-09-11T05:24:02.253Z,1896
2016-09-11T05:25:02.244Z,1952
2016-09-11T05:26:02.215Z,2008
2016-09-11T05:27:02.197Z,2076
2016-09-11T05:28:02.192Z,2160
2016-09-11T05:29:02.162Z,2272
2016-09-11T05:30:02.430Z,2384
2016-09-11T05:31:02.118Z,2500
2016-09-11T05:32:02.100Z,2620
2016-09-11T05:33:02.379Z,2724
2016-09-11T05:34:02.079Z,2784
2016-09-11T05:35:02.319Z,2832
2016-09-11T05:36:02.021Z,2900
2016-09-11T05:37:02.001Z,2976
2016-09-11T05:38:01.985Z,3052
2016-09-11T05:39:01.966Z,3116
2016-09-11T05:40:02.206Z,3196
2016-09-11T05:41:01.929Z,3288
2016-09-11T05:42:01.917Z,3380
2016-09-11T05:43:01.886Z,3464
2016-09-11T05:44:01.874Z,3548
2016-09-11T05:45:01.848Z,3620
2016-09-11T05:46:01.828Z,3704
2016-09-11T05:47:02.490Z,3784
2016-09-11T05:48:01.795Z,3856
2016-09-11T05:49:01.795Z,3920
2016-09-11T05:50:01.755Z,3988
2016-09-11T05:51:01.732Z,4052
2016-09-11T05:52:01.712Z,4116
2016-09-11T05:53:01.742Z,4180
2016-09-11T05:54:01.675Z,4244
2016-09-11T05:55:01.657Z,4308
2016-09-11T05:56:01.636Z,4376
2016-09-11T05:57:01.617Z,4436
2016-09-11T05:58:01.598Z,4504
2016-09-11T05:59:01.587Z,4560
2016-09-11T06:00:01.561Z,4616
2016-09-11T06:01:01.543Z,4672
2016-09-11T06:02:01.528Z,4728
2016-09-11T06:03:01.511Z,4788
2016-09-11T06:04:01.484Z,4848
2016-09-11T06:05:01.467Z,4908
2016-09-11T06:06:01.450Z,4976
2016-09-11T06:07:01.431Z,5040
2016-09-11T06:08:01.410Z,5112
2016-09-11T06:09:01.396Z,5184
2016-09-11T06:10:01.381Z,5260
2016-09-11T06:11:01.353Z,5340
2016-09-11T06:12:01.487Z,5428
2016-09-11T06:13:03.196Z,5520
2016-09-11T06:14:01.476Z,5616
2016-09-11T06:15:01.303Z,5724
2016-09-11T06:16:01.396Z,5832
2016-09-11T06:17:01.280Z,5944
2016-09-11T06:18:01.277Z,6060
2016-09-11T06:19:01.214Z,6172
2016-09-11T06:20:02.628Z,6284
2016-09-11T06:21:01.176Z,6404
2016-09-11T06:22:01.164Z,6528
2016-09-11T06:23:01.253Z,6652
2016-09-11T06:24:01.150Z,6776
2016-09-11T06:25:01.102Z,6912
2016-09-11T06:26:01.217Z,7056
2016-09-11T06:27:01.069Z,7200
2016-09-11T06:28:01.046Z,7336
2016-09-11T06:29:01.027Z,7472
2016-09-11T06:30:01.031Z,7616
2016-09-11T06:31:00.991Z,7748
2016-09-11T06:32:00.976Z,7864
2016-09-11T06:33:01.276Z,7976
2016-09-11T06:34:01.238Z,8092
2016-09-11T06:35:00.946Z,8208
2016-09-11T06:36:00.909Z,8332
2016-09-11T06:37:01.264Z,8464
2016-09-11T06:38:00.864Z,8596
2016-09-11T06:39:01.171Z,8732
2016-09-11T06:40:00.850Z,8860
2016-09-11T06:41:00.828Z,9004
2016-09-11T06:42:00.930Z,9148
2016-09-11T06:43:00.877Z,9296
2016-09-11T06:44:01.099Z,9448
2016-09-11T06:45:00.773Z,9604
2016-09-11T06:46:00.731Z,9764
2016-09-11T06:47:00.706Z,9932
2016-09-11T06:48:00.837Z,10100
2016-09-11T06:49:00.663Z,10252
2016-09-11T06:50:00.689Z,10408
2016-09-11T06:51:00.640Z,10540
2016-09-11T06:52:00.916Z,10572
2016-09-11T06:53:00.893Z,10660
2016-09-11T06:54:00.590Z,10744
2016-09-11T06:55:00.769Z,10728
2016-09-11T06:56:00.853Z,10788
2016-09-11T06:57:00.538Z,10800
2016-09-11T06:58:00.521Z,10792
2016-09-11T06:59:00.524Z,10776
2016-09-11T07:00:01.137Z,10752
2016-09-11T07:01:00.485Z,10748
2016-09-11T07:02:00.550Z,10756
2016-09-11T07:03:00.498Z,10796
2016-09-11T07:04:00.490Z,10860
2016-09-11T07:05:00.720Z,10900
2016-09-11T07:06:00.471Z,10952
2016-09-11T07:07:00.669Z,11020
2016-09-11T07:08:00.466Z,11088
2016-09-11T07:09:00.451Z,11164
2016-09-11T07:10:00.321Z,11252
2016-09-11T07:11:00.303Z,11396
2016-09-11T07:12:00.279Z,11496
2016-09-11T07:13:00.383Z,11596
2016-09-11T07:14:00.565Z,11640
2016-09-11T07:15:00.339Z,11668
2016-09-11T07:16:00.204Z,11772
2016-09-11T07:17:00.956Z,11796
2016-09-11T07:18:00.360Z,11828
2016-09-11T07:19:00.172Z,11916
2016-09-11T07:20:00.187Z,12040
2016-09-11T07:21:00.174Z,12220
2016-09-11T07:22:00.212Z,12464
2016-09-11T07:23:00.136Z,12772
2016-09-11T07:24:00.140Z,13012
2016-09-11T07:25:00.055Z,13112
2016-09-11T07:26:00.345Z,13172
2016-09-11T07:27:00.034Z,13220
2016-09-11T07:28:00.328Z,13216
2016-09-11T07:29:00.003Z,13268
2016-09-11T07:30:00.292Z,13376
2016-09-11T07:30:59.962Z,13468
2016-09-11T07:31:59.944Z,13528
2016-09-11T07:33:00.392Z,13632
2016-09-11T07:34:00.404Z,13784
2016-09-11T07:34:59.912Z,13940
2016-09-11T07:36:00.228Z,14100
2016-09-11T07:37:00.034Z,14252
2016-09-11T07:37:59.877Z,14420
2016-09-11T07:38:59.828Z,14584
2016-09-11T07:39:59.833Z,14744
2016-09-11T07:40:59.810Z,14848
2016-09-11T07:41:59.785Z,14980
2016-09-11T07:42:59.761Z,15128
2016-09-11T07:43:59.829Z,15244
2016-09-11T07:44:59.830Z,15348
2016-09-11T07:46:00.056Z,15468
2016-09-11T07:46:59.727Z,15544
2016-09-11T07:48:00.708Z,15604
2016-09-11T07:48:59.689Z,15652
2016-09-11T07:49:59.660Z,15664
2016-09-11T07:50:59.641Z,15744
2016-09-11T07:51:59.625Z,15864
2016-09-11T07:52:59.613Z,15908
2016-09-11T07:53:59.896Z,15992
2016-09-11T07:54:59.895Z,16156
2016-09-11T07:55:59.559Z,16280
2016-09-11T07:56:59.589Z,16428
2016-09-11T07:57:59.841Z,16604
2016-09-11T07:58:59.546Z,16656
2016-09-11T07:59:59.539Z,16712
2016-09-11T08:00:59.495Z,16808
2016-09-11T08:01:59.470Z,16912
2016-09-11T08:02:59.457Z,17064
2016-09-11T08:03:59.443Z,17220
2016-09-11T08:04:59.748Z,17372
2016-09-11T08:05:59.706Z,17528
2016-09-11T08:06:59.404Z,17708
2016-09-11T08:07:59.731Z,18048
2016-09-11T08:08:59.370Z,18208
2016-09-11T08:09:59.830Z,18336
2016-09-11T08:10:59.346Z,18400
2016-09-11T08:11:59.469Z,18528
2016-09-11T08:12:59.340Z,18592
2016-09-11T08:13:59.329Z,18688
2016-09-11T08:14:59.284Z,18848
2016-09-11T08:15:59.363Z,19008
2016-09-11T08:16:59.856Z,19072
2016-09-11T08:17:59.313Z,19168
2016-09-11T08:18:59.542Z,19232
2016-09-11T08:19:59.197Z,19328
2016-09-11T08:20:59.220Z,19488
2016-09-11T08:21:59.176Z,19648
2016-09-11T08:22:59.465Z,19776
2016-09-11T08:23:59.511Z,19936
2016-09-11T08:24:59.135Z,20032
2016-09-11T08:25:59.793Z,20160
2016-09-11T08:26:59.403Z,20320
2016-09-11T08:27:59.096Z,20448
2016-09-11T08:28:59.092Z,20576
2016-09-11T08:29:59.683Z,20736
2016-09-11T08:30:59.042Z,20864
2016-09-11T08:31:59.060Z,21056
2016-09-11T08:32:59.098Z,21248
2016-09-11T08:33:59.439Z,21408
2016-09-11T08:34:59.309Z,21568
2016-09-11T08:35:58.971Z,21792
2016-09-11T08:36:58.983Z,21952
2016-09-11T08:37:59.257Z,22080
2016-09-11T08:38:59.265Z,22144
2016-09-11T08:39:58.933Z,22272
2016-09-11T08:40:59.230Z,22464
2016-09-11T08:41:58.911Z,22560
2016-09-11T08:42:58.870Z,22656
2016-09-11T08:43:58.900Z,22720
2016-09-11T08:44:58.863Z,22784
2016-09-11T08:45:58.858Z,22880
2016-09-11T08:46:58.879Z,23008
2016-09-11T08:47:58.804Z,23072
2016-09-11T08:48:58.810Z,23136
2016-09-11T08:49:58.846Z,23200
2016-09-11T08:50:58.772Z,23296
2016-09-11T08:51:59.063Z,23424
2016-09-11T08:52:59.067Z,23456
2016-09-11T08:53:59.065Z,23456
2016-09-11T08:54:58.716Z,23488
2016-09-11T08:55:59.008Z,23552
2016-09-11T08:56:58.687Z,23584
2016-09-11T08:57:58.684Z,23584
2016-09-11T08:58:58.667Z,23616
2016-09-11T08:59:58.709Z,23616
2016-09-11T09:00:58.655Z,23616
2016-09-11T09:01:58.619Z,23648
2016-09-11T09:02:58.698Z,23648
2016-09-11T09:03:58.895Z,23712
2016-09-11T09:04:58.720Z,23744
2016-09-11T09:05:58.591Z,23776
2016-09-11T09:06:58.663Z,23872
2016-09-11T09:07:58.855Z,23904
2016-09-11T09:08:58.551Z,24000
2016-09-11T09:09:58.613Z,24064
2016-09-11T09:10:58.547Z,24160
2016-09-11T09:11:58.543Z,24192
2016-09-11T09:12:58.526Z,24256
2016-09-11T09:13:58.782Z,24320
2016-09-11T09:14:58.759Z,24352
2016-09-11T09:15:58.479Z,24416
2016-09-11T09:16:58.486Z,24480
2016-09-11T09:17:58.494Z,24544
2016-09-11T09:18:58.450Z,24640
2016-09-11T09:19:58.740Z,24704
2016-09-11T09:20:58.991Z,24800
2016-09-11T09:21:58.664Z,24896
2016-09-11T09:22:58.386Z,24960
2016-09-11T09:23:58.631Z,25024
2016-09-11T09:24:58.325Z,25120
2016-09-11T09:25:58.475Z,25184
2016-09-11T09:26:58.310Z,25280
2016-09-11T09:27:58.592Z,25376
2016-09-11T09:28:58.290Z,25472
2016-09-11T09:29:58.273Z,25600
2016-09-11T09:30:58.275Z,25728
2016-09-11T09:31:58.231Z,25888
2016-09-11T09:32:58.320Z,25984
2016-09-11T09:33:58.565Z,26112
2016-09-11T09:34:58.663Z,26272
2016-09-11T09:35:58.188Z,26368
2016-09-11T09:36:58.500Z,26464
2016-09-11T09:37:58.170Z,26496
2016-09-11T09:38:58.873Z,26560
2016-09-11T09:39:58.430Z,26624
2016-09-11T09:40:58.513Z,26656
2016-09-11T09:41:58.449Z,26720
2016-09-11T09:42:58.110Z,26752
2016-09-11T09:43:58.162Z,26816
2016-09-11T09:44:58.092Z,26848
2016-09-11T09:45:58.361Z,26912
2016-09-11T09:46:58.050Z,27008
2016-09-11T09:47:58.045Z,27072
2016-09-11T09:48:58.104Z,27168
2016-09-11T09:49:58.021Z,27264
2016-09-11T09:50:58.003Z,27296
2016-09-11T09:51:57.995Z,27360
2016-09-11T09:52:57.970Z,27360
2016-09-11T09:53:58.035Z,27392
2016-09-11T09:54:57.947Z,27392
2016-09-11T09:55:57.933Z,27392
2016-09-11T09:56:58.263Z,27424
2016-09-11T09:57:57.912Z,27392
2016-09-11T09:58:57.925Z,27424
2016-09-11T09:59:57.898Z,27424
2016-09-11T10:00:57.880Z,27456
2016-09-11T10:01:57.865Z,27488
2016-09-11T10:02:57.859Z,27520
2016-09-11T10:03:57.836Z,27584
2016-09-11T10:04:57.843Z,27616
2016-09-11T10:05:57.817Z,27712
2016-09-11T10:06:58.101Z,27712
2016-09-11T10:07:58.195Z,27776
2016-09-11T10:08:57.773Z,27744
2016-09-11T10:09:57.778Z,27712
2016-09-11T10:10:57.795Z,27712
2016-09-11T10:11:57.760Z,27680
2016-09-11T10:12:57.725Z,27648
2016-09-11T10:13:57.876Z,27648
2016-09-11T10:14:57.704Z,27648
2016-09-11T10:15:57.699Z,27616
2016-09-11T10:16:57.700Z,27552
2016-09-11T10:17:58.077Z,27488
2016-09-11T10:18:57.989Z,27424
2016-09-11T10:19:57.947Z,27328
2016-09-11T10:20:57.632Z,27264
2016-09-11T10:21:57.620Z,27200
2016-09-11T10:22:57.606Z,27104
2016-09-11T10:23:57.616Z,27008
2016-09-11T10:24:57.886Z,26976
2016-09-11T10:25:57.644Z,26912
2016-09-11T10:26:57.565Z,26816
2016-09-11T10:27:57.872Z,26752
2016-09-11T10:28:58.131Z,26656
2016-09-11T10:29:57.527Z,26624
2016-09-11T10:30:57.524Z,26624
2016-09-11T10:31:57.504Z,26560
2016-09-11T10:32:57.489Z,26496
2016-09-11T10:33:57.538Z,26496
2016-09-11T10:34:57.768Z,26496
2016-09-11T10:35:57.454Z,26464
2016-09-11T10:36:58.091Z,26496
2016-09-11T10:37:57.433Z,26528
2016-09-11T10:38:57.433Z,26560
2016-09-11T10:39:57.417Z,26528
2016-09-11T10:40:57.407Z,26560
2016-09-11T10:41:57.387Z,26496
2016-09-11T10:42:57.381Z,26464
2016-09-11T10:43:57.370Z,26656
2016-09-11T10:44:57.642Z,26784
2016-09-11T10:45:57.482Z,26848
2016-09-11T10:46:57.400Z,26784
2016-09-11T10:47:57.312Z,26752
2016-09-11T10:48:57.596Z,26688
2016-09-11T10:49:57.563Z,26560
2016-09-11T10:50:57.676Z,26464
2016-09-11T10:51:57.270Z,26592
2016-09-11T10:52:57.269Z,26944
2016-09-11T10:53:57.862Z,27488
2016-09-11T10:54:57.249Z,27840
2016-09-11T10:55:57.268Z,28032
2016-09-11T10:56:57.224Z,28128
2016-09-11T10:57:57.222Z,28224
2016-09-11T10:58:57.263Z,28032
2016-09-11T10:59:57.174Z,27712
2016-09-11T11:00:57.463Z,27264
2016-09-11T11:01:57.187Z,26816
2016-09-11T11:02:57.164Z,26368
2016-09-11T11:03:57.171Z,26016
2016-09-11T11:04:57.114Z,25728
2016-09-11T11:05:57.398Z,25632
2016-09-11T11:06:57.097Z,25536
2016-09-11T11:07:57.429Z,25440
2016-09-11T11:08:57.135Z,25408
2016-09-11T11:09:57.060Z,25408
2016-09-11T11:10:57.373Z,25408
2016-09-11T11:11:57.037Z,25472
2016-09-11T11:12:57.029Z,25504
2016-09-11T11:13:57.014Z,25600
2016-09-11T11:14:57.025Z,25664
2016-09-11T11:15:57.136Z,25760
2016-09-11T11:16:56.980Z,25824
2016-09-11T11:17:57.256Z,25856
2016-09-11T11:18:56.976Z,25888
2016-09-11T11:19:57.325Z,25952
2016-09-11T11:20:56.939Z,26016
2016-09-11T11:21:56.944Z,26048
2016-09-11T11:22:57.212Z,26080
2016-09-11T11:23:56.901Z,26144
2016-09-11T11:24:57.194Z,26208
2016-09-11T11:25:56.906Z,26240
2016-09-11T11:26:56.850Z,26272
2016-09-11T11:27:57.239Z,26304
2016-09-11T11:28:56.837Z,26368
2016-09-11T11:29:57.424Z,26368
2016-09-11T11:30:56.832Z,26400
2016-09-11T11:31:56.827Z,26400
2016-09-11T11:32:57.380Z,26400
2016-09-11T11:33:57.089Z,26400
2016-09-11T11:34:56.862Z,26400
2016-09-11T11:35:57.048Z,26400
2016-09-11T11:36:57.463Z,26368
2016-09-11T11:37:56.722Z,26304
2016-09-11T11:38:56.710Z,26272
2016-09-11T11:39:56.998Z,26240
2016-09-11T11:40:56.794Z,26240
2016-09-11T11:41:57.003Z,26208
2016-09-11T11:42:56.679Z,26144
2016-09-11T11:43:56.665Z,26144
2016-09-11T11:44:56.934Z,26112
2016-09-11T11:45:57.251Z,26080
2016-09-11T11:46:56.618Z,26048
2016-09-11T11:47:56.610Z,26080
2016-09-11T11:49:02.201Z,26080
2016-09-11T11:49:56.678Z,26080
2016-09-11T11:50:57.398Z,26048
2016-09-11T11:51:56.956Z,26048
2016-09-11T11:52:56.564Z,26016
2016-09-11T11:53:56.570Z,25984
2016-09-11T11:54:56.537Z,25920
2016-09-11T11:55:56.822Z,25888
2016-09-11T11:56:56.511Z,25824
2016-09-11T11:57:56.889Z,25760
2016-09-11T11:58:56.781Z,25728
2016-09-11T11:59:56.776Z,25664
2016-09-11T12:00:56.519Z,25568
2016-09-11T12:01:56.460Z,25504
2016-09-11T12:02:56.921Z,25376
2016-09-11T12:03:56.454Z,25248
2016-09-11T12:04:56.418Z,25184
2016-09-11T12:05:56.415Z,25152
2016-09-11T12:06:56.753Z,25184
2016-09-11T12:07:56.440Z,25216
2016-09-11T12:08:56.377Z,25216
2016-09-11T12:09:56.728Z,25216
2016-09-11T12:10:56.652Z,25280
2016-09-11T12:11:56.388Z,25312
2016-09-11T12:12:56.352Z,25376
2016-09-11T12:13:56.655Z,25440
2016-09-11T12:14:56.331Z,25504
2016-09-11T12:15:56.615Z,25504
2016-09-11T12:16:56.594Z,25504
2016-09-11T12:17:56.375Z,25344
2016-09-11T12:18:56.275Z,25280
2016-09-11T12:19:57.045Z,25248
2016-09-11T12:20:56.255Z,25216
2016-09-11T12:21:56.467Z,25216
2016-09-11T12:22:56.549Z,25248
2016-09-11T12:23:56.219Z,25344
2016-09-11T12:24:56.259Z,25376
2016-09-11T12:25:56.259Z,25376
2016-09-11T12:26:56.192Z,25344
2016-09-11T12:27:56.191Z,25280
2016-09-11T12:28:56.488Z,25184
2016-09-11T12:29:56.163Z,25120
2016-09-11T12:30:56.177Z,24992
2016-09-11T12:31:56.139Z,24992
2016-09-11T12:32:56.439Z,24992
2016-09-11T12:33:56.133Z,25088
2016-09-11T12:34:56.141Z,25120
2016-09-11T12:35:56.152Z,25088
2016-09-11T12:36:56.104Z,25024
2016-09-11T12:37:56.081Z,24960
2016-09-11T12:38:56.388Z,24896
2016-09-11T12:39:56.366Z,24928
2016-09-11T12:40:56.056Z,24992
2016-09-11T12:41:56.032Z,25024
2016-09-11T12:42:56.320Z,25056
2016-09-11T12:43:56.020Z,25056
2016-09-11T12:44:56.311Z,25024
2016-09-11T12:45:56.016Z,25056
2016-09-11T12:46:55.995Z,25056
2016-09-11T12:47:56.428Z,25056
2016-09-11T12:48:56.266Z,25088
2016-09-11T12:49:55.969Z,25120
2016-09-11T12:50:56.247Z,25152
2016-09-11T12:51:56.023Z,25152
2016-09-11T12:52:55.928Z,25216
2016-09-11T12:53:55.914Z,25248
2016-09-11T12:54:56.385Z,25344
2016-09-11T12:55:56.197Z,25408
2016-09-11T12:56:55.887Z,25440
2016-09-11T12:57:55.875Z,25408
2016-09-11T12:58:55.880Z,25344
2016-09-11T12:59:55.914Z,25312
2016-09-11T13:00:55.950Z,25184
2016-09-11T13:01:56.174Z,25088
2016-09-11T13:02:56.130Z,24960
2016-09-11T13:03:55.834Z,24768
2016-09-11T13:04:55.809Z,24576
2016-09-11T13:05:55.809Z,24384
2016-09-11T13:06:56.399Z,24128
2016-09-11T13:07:55.783Z,23936
2016-09-11T13:08:55.785Z,23680
2016-09-11T13:09:56.381Z,23456
2016-09-11T13:10:55.829Z,23200
2016-09-11T13:11:56.530Z,22976
2016-09-11T13:12:55.739Z,22752
2016-09-11T13:13:55.778Z,22624
2016-09-11T13:14:55.731Z,22464
2016-09-11T13:15:56.090Z,22240
2016-09-11T13:16:55.989Z,22080
2016-09-11T13:17:56.486Z,21888
2016-09-11T13:18:55.681Z,21696
2016-09-11T13:19:55.974Z,21600
2016-09-11T13:20:55.963Z,21536
2016-09-11T13:21:55.779Z,21568
2016-09-11T13:22:55.785Z,21792
2016-09-11T13:23:55.646Z,21984
2016-09-11T13:24:55.630Z,22080
2016-09-11T13:25:55.786Z,22144
2016-09-11T13:26:55.658Z,22144
2016-09-11T13:27:55.611Z,22080
2016-09-11T13:28:55.592Z,22048
2016-09-11T13:29:55.891Z,21952
2016-09-11T13:30:55.646Z,21760
2016-09-11T13:31:55.556Z,21568
2016-09-11T13:32:55.565Z,21408
2016-09-11T13:33:55.658Z,21344